Terminal Aerodrome Forecast
Issued by NWS Flagstaff, AZ

Home | Current Version | Previous Version | Text Only | Print | Product List | Glossary On
Versions: 1 2 3 4 5 6 7 8 9 10 11 12 13 14 15 16 17 18 19
000
FTUS45 KFGZ 171000 AAA
TAFFLG
TAF AMD
KFLG 171015Z 1710/1806 VRB04KT P6SM VCSH SCT050 BKN080
      TEMPO 1710/1714 5SM -SHRA BKN040
     FM171400 09008KT P6SM OVC060
      TEMPO 1716/1720 4SM -TSRA BKN030CB
     FM172000 VRB06KT P6SM -SHRA BKN040=

USA.gov is the U.S. government's official web portal to all federal, state and local government web resources and services.